Valatie, New York
Current Conditions -  °F | °C
As of 12:54 AM on Saturday 01 Nov 2014 (Local Time) from KPSF Reporting Station
Overcast Overcast  
Wind Chill: 37°   Ceiling: 4700
Heat Index: 41°   Visibility: 10mi
Dew Point: 37°   Wind: 6mph
Humidity: 86%   Direction: 30°NNE
Pressure: 29.92"   Gusts: NA
Location:  42.41°N, 73.67°W
Report Text: KPSF 010454Z AUTO 03005KT 10SM BKN047 OVC060 05/03 A2992 RMK AO2 RAE44 SLP129 P0001 T00500028 400891022
Loading
Personal Weather Stations






























Interactive Weather Map
Tropical Storm Tracking
New forecast layout! Learn more

10-Day Weather Forecast

Advertisements
Track Severe Weather on mobile